DAUG

Noumérat - Moufdi Zakaria Airport

Ghardaïa, Algeria
METAR DAUG 191500Z 18005KT 090V210 9999 SCT040 38/09 Q1016
Observed Flight Rules
Aug-19 @ 15:00 UTC (39 minutes ago) Visual Flight Rules
Wind Visibility Clouds
180° at 5 knots 10,000+ meters
  • Scattered at 4,000' AGL
Temperatures Readings
Current 38°C / 100°F
Dewpoint 9°C / 48°F
Humidity 17%
Altimeter 30" Hg
Pressure 1016 hPa
Elevation 450
METAR DAUG 191500Z 18005KT 090V210 9999 SCT040 38/09 Q1016
Observed Flight Rules
Aug-19 @ 15:00 UTC
(39 minutes ago)
VFR
Wind Visibility
180° at 5 knots 10,000+ meters
Clouds
  • Scattered at 4,000' AGL
Temperature Dewpoint
38°C / 100°F 9°C / 48°F
Humidity Altimeter Pressure
17% 30" Hg 1016 hPa